createdAt,value
2022-09-03T00:00:35.302Z,19.70
2022-09-03T00:03:14.569Z,19.70
2022-09-03T00:05:49.512Z,19.60
2022-09-03T00:08:25.215Z,19.70
2022-09-03T00:10:58.141Z,19.60
2022-09-03T00:13:33.064Z,19.60
2022-09-03T00:16:10.454Z,19.60
2022-09-03T00:18:45.912Z,19.60
2022-09-03T00:21:18.917Z,19.50
2022-09-03T00:23:50.368Z,19.50
2022-09-03T00:26:27.012Z,19.50
2022-09-03T00:29:01.340Z,19.50
2022-09-03T00:31:37.487Z,19.50
2022-09-03T00:34:11.718Z,19.50
2022-09-03T00:36:43.302Z,19.50
2022-09-03T00:39:14.204Z,19.50
2022-09-03T00:41:55.008Z,19.50
2022-09-03T00:44:48.566Z,19.40
2022-09-03T00:47:26.146Z,19.40
2022-09-03T00:50:07.403Z,19.40
2022-09-03T00:52:56.089Z,19.40
2022-09-03T00:55:35.820Z,19.30
2022-09-03T00:58:28.078Z,19.30
2022-09-03T01:00:57.310Z,19.30
2022-09-03T01:03:40.839Z,19.30
2022-09-03T01:06:20.366Z,19.20
2022-09-03T01:09:10.521Z,19.20
2022-09-03T01:11:49.347Z,19.20
2022-09-03T01:14:31.391Z,19.20
2022-09-03T01:17:08.250Z,19.20
2022-09-03T01:20:00.699Z,19.20
2022-09-03T01:23:14.698Z,19.10
2022-09-03T01:25:58.362Z,19.10
2022-09-03T01:28:46.346Z,19.10
2022-09-03T01:31:27.305Z,19.10
2022-09-03T01:34:05.395Z,19.10
2022-09-03T01:36:44.554Z,19.00
2022-09-03T01:39:20.068Z,19.00
2022-09-03T01:42:20.455Z,19.00
2022-09-03T01:45:21.711Z,19.00
2022-09-03T01:48:02.849Z,19.00
2022-09-03T01:50:41.236Z,19.00
2022-09-03T01:53:18.376Z,19.00
2022-09-03T01:56:07.466Z,19.00
2022-09-03T01:58:43.447Z,19.00
2022-09-03T02:01:19.040Z,19.00
2022-09-03T02:03:48.816Z,19.00
2022-09-03T02:06:20.964Z,19.00
2022-09-03T02:08:50.313Z,19.00
2022-09-03T02:11:19.488Z,19.00
2022-09-03T02:13:52.586Z,19.00
2022-09-03T02:16:25.780Z,19.00
2022-09-03T02:18:59.630Z,19.00
2022-09-03T02:21:34.582Z,19.00
2022-09-03T02:24:05.359Z,19.10
2022-09-03T02:26:34.608Z,19.10
2022-09-03T02:29:04.307Z,19.10
2022-09-03T02:31:34.762Z,19.10
2022-09-03T02:34:03.755Z,19.20
2022-09-03T02:36:36.947Z,19.20
2022-09-03T02:39:05.951Z,19.20
2022-09-03T02:41:35.211Z,19.20
2022-09-03T02:44:09.820Z,19.30
2022-09-03T02:46:43.050Z,19.30
2022-09-03T02:49:12.833Z,19.30
2022-09-03T02:51:44.163Z,19.40
2022-09-03T02:54:16.689Z,19.30
2022-09-03T02:56:49.897Z,19.30
2022-09-03T02:59:19.567Z,19.40
2022-09-03T03:01:50.035Z,19.40
2022-09-03T03:04:20.494Z,19.40
2022-09-03T03:06:50.906Z,19.40
2022-09-03T03:09:19.958Z,19.40
2022-09-03T03:11:50.884Z,19.30
2022-09-03T03:14:20.355Z,19.30
2022-09-03T03:16:50.897Z,19.30
2022-09-03T03:19:20.537Z,19.30
2022-09-03T03:21:49.919Z,19.30
2022-09-03T03:24:19.004Z,19.30
2022-09-03T03:30:28.923Z,19.30
2022-09-03T03:32:59.147Z,19.30
2022-09-03T03:35:27.908Z,19.30
2022-09-03T03:37:58.707Z,19.30
2022-09-03T03:40:27.955Z,19.20
2022-09-03T03:42:59.950Z,19.20
2022-09-03T03:45:28.373Z,19.20
2022-09-03T03:48:00.605Z,19.20
2022-09-03T03:50:29.231Z,19.10
2022-09-03T03:53:01.049Z,19.10
2022-09-03T03:55:32.452Z,19.10
2022-09-03T03:58:04.245Z,19.10
2022-09-03T04:00:37.761Z,19.00
2022-09-03T04:03:07.522Z,19.00
2022-09-03T04:05:35.760Z,19.00
2022-09-03T04:08:07.205Z,19.00
2022-09-03T04:10:35.608Z,19.00
2022-09-03T04:13:04.019Z,19.00
2022-09-03T04:15:32.495Z,19.00
2022-09-03T04:18:00.753Z,19.00
2022-09-03T04:20:31.031Z,18.90
2022-09-03T04:23:02.330Z,18.90
2022-09-03T04:25:30.591Z,18.90
2022-09-03T04:27:58.891Z,18.80
2022-09-03T04:30:27.817Z,18.80
2022-09-03T04:32:56.415Z,18.80
2022-09-03T04:35:26.537Z,18.80
2022-09-03T04:37:57.768Z,18.80
2022-09-03T04:40:26.038Z,18.80
2022-09-03T04:42:59.335Z,18.70
2022-09-03T04:45:28.818Z,18.70
2022-09-03T04:47:58.906Z,18.60
2022-09-03T04:50:28.150Z,18.50
2022-09-03T04:53:07.762Z,18.50
2022-09-03T04:55:37.417Z,18.50
2022-09-03T04:58:07.780Z,18.50
2022-09-03T05:00:38.037Z,18.50
2022-09-03T05:03:06.972Z,18.50
2022-09-03T05:05:35.554Z,18.40
2022-09-03T05:08:05.998Z,18.50
2022-09-03T05:10:35.009Z,18.40
2022-09-03T05:13:05.483Z,18.40
2022-09-03T05:15:35.463Z,18.30
2022-09-03T05:18:04.596Z,18.40
2022-09-03T05:20:33.772Z,18.30
2022-09-03T05:23:05.160Z,18.30
2022-09-03T05:25:33.870Z,18.30
2022-09-03T05:28:03.021Z,18.30
2022-09-03T05:30:32.517Z,18.20
2022-09-03T05:33:02.822Z,18.20
2022-09-03T05:35:31.865Z,18.20
2022-09-03T05:38:00.868Z,18.20
2022-09-03T05:40:32.194Z,18.20
2022-09-03T05:43:01.879Z,18.20
2022-09-03T05:45:32.364Z,18.20
2022-09-03T05:48:01.919Z,18.20
2022-09-03T05:50:30.115Z,18.20
2022-09-03T05:53:00.240Z,18.20
2022-09-03T05:55:29.284Z,18.20
2022-09-03T05:57:58.911Z,18.20
2022-09-03T06:00:27.960Z,18.20
2022-09-03T06:02:58.296Z,18.30
2022-09-03T06:05:26.574Z,18.30
2022-09-03T06:07:54.897Z,18.30
2022-09-03T06:10:26.926Z,18.40
2022-09-03T06:13:01.407Z,18.30
2022-09-03T06:15:29.737Z,18.30
2022-09-03T06:17:58.243Z,18.30
2022-09-03T06:20:29.981Z,18.30
2022-09-03T06:22:58.400Z,18.40
2022-09-03T06:25:27.814Z,18.40
2022-09-03T06:27:56.492Z,18.40
2022-09-03T06:30:27.557Z,18.40
2022-09-03T06:32:59.669Z,18.40
2022-09-03T06:35:28.343Z,18.40
2022-09-03T06:37:57.883Z,18.40
2022-09-03T06:40:26.979Z,18.50
2022-09-03T06:43:02.593Z,18.60
2022-09-03T06:45:32.970Z,18.60
2022-09-03T06:48:01.443Z,18.70
2022-09-03T06:50:33.990Z,18.70
2022-09-03T06:53:03.034Z,18.80
2022-09-03T06:55:31.688Z,18.90
2022-09-03T06:57:59.966Z,18.90
2022-09-03T07:00:28.491Z,19.00
2022-09-03T07:03:03.067Z,19.00
2022-09-03T07:05:32.061Z,19.10
2022-09-03T07:08:00.421Z,19.20
2022-09-03T07:10:28.867Z,19.20
2022-09-03T07:12:57.296Z,19.20
2022-09-03T07:15:26.693Z,19.30
2022-09-03T07:17:55.098Z,19.40
2022-09-03T07:20:25.248Z,19.40
2022-09-03T07:22:57.366Z,19.40
2022-09-03T07:25:27.443Z,19.50
2022-09-03T07:27:55.758Z,19.50
2022-09-03T07:30:27.974Z,19.60
2022-09-03T07:32:56.491Z,19.70
2022-09-03T07:35:26.823Z,19.70
2022-09-03T07:37:56.555Z,19.80
2022-09-03T07:40:24.974Z,19.80
2022-09-03T07:42:58.985Z,19.90
2022-09-03T07:45:29.006Z,19.90
2022-09-03T07:47:58.082Z,20.00
2022-09-03T07:50:30.872Z,20.00
2022-09-03T07:52:59.865Z,20.00
2022-09-03T07:55:28.900Z,20.10
2022-09-03T07:57:58.503Z,20.20
2022-09-03T08:00:27.500Z,20.20
2022-09-03T08:02:59.966Z,20.30
2022-09-03T08:05:29.894Z,20.30
2022-09-03T08:08:03.632Z,20.40
2022-09-03T08:10:40.732Z,20.40
2022-09-03T08:13:15.604Z,20.50
2022-09-03T08:15:44.702Z,20.60
2022-09-03T08:18:18.526Z,20.70
2022-09-03T08:20:48.100Z,20.80
2022-09-03T08:23:16.390Z,20.80
2022-09-03T08:25:46.747Z,20.90
2022-09-03T08:28:17.439Z,20.90
2022-09-03T08:30:48.385Z,21.00
2022-09-03T08:33:36.991Z,21.00
2022-09-03T08:36:11.655Z,21.00
2022-09-03T08:38:46.151Z,21.10
2022-09-03T08:41:22.032Z,21.20
2022-09-03T08:44:09.934Z,21.30
2022-09-03T08:46:49.762Z,21.30
2022-09-03T08:49:24.583Z,21.30
2022-09-03T08:51:58.967Z,21.40
2022-09-03T08:54:31.308Z,21.50
2022-09-03T08:57:03.046Z,21.50
2022-09-03T08:59:35.480Z,21.60
2022-09-03T09:02:16.815Z,21.50
2022-09-03T09:04:59.394Z,21.50
2022-09-03T09:07:34.877Z,21.60
2022-09-03T09:10:11.183Z,21.70
2022-09-03T09:12:47.650Z,21.80
2022-09-03T09:15:26.988Z,21.90
2022-09-03T09:18:14.013Z,21.90
2022-09-03T09:20:50.079Z,22.00
2022-09-03T09:23:31.259Z,22.10
2022-09-03T09:26:02.419Z,22.20
2022-09-03T09:28:39.701Z,22.20
2022-09-03T09:31:12.589Z,22.20
2022-09-03T09:33:41.269Z,22.30
2022-09-03T09:36:15.408Z,22.40
2022-09-03T09:38:48.651Z,22.40
2022-09-03T09:41:19.402Z,22.40
2022-09-03T09:43:50.223Z,22.50
2022-09-03T09:46:25.394Z,22.60
2022-09-03T09:48:55.595Z,22.70
2022-09-03T09:51:28.280Z,22.80
2022-09-03T09:54:16.104Z,23.00
2022-09-03T09:56:50.602Z,23.20
2022-09-03T09:59:21.307Z,23.30
2022-09-03T10:01:51.188Z,23.60
2022-09-03T10:04:32.377Z,23.80
2022-09-03T10:07:05.075Z,24.10
2022-09-03T10:09:41.269Z,24.30
2022-09-03T10:12:21.798Z,24.40
2022-09-03T10:14:56.747Z,24.40
2022-09-03T10:17:37.158Z,24.30
2022-09-03T10:20:33.942Z,24.20
2022-09-03T10:23:09.027Z,24.20
2022-09-03T10:25:52.051Z,24.20
2022-09-03T10:28:24.107Z,24.30
2022-09-03T10:31:17.811Z,24.50
2022-09-03T10:33:53.560Z,24.80
2022-09-03T10:36:26.613Z,25.20
2022-09-03T10:39:02.891Z,25.50
2022-09-03T10:41:47.522Z,25.50
2022-09-03T10:44:38.535Z,26.10
2022-09-03T10:47:21.774Z,26.80
2022-09-03T10:50:06.072Z,27.30
2022-09-03T10:52:43.786Z,27.70
2022-09-03T10:55:21.553Z,28.20
2022-09-03T10:58:05.598Z,28.80
2022-09-03T11:00:38.003Z,29.30
2022-09-03T11:03:31.166Z,29.50
2022-09-03T11:06:08.432Z,29.60
2022-09-03T11:08:45.313Z,29.80
2022-09-03T11:11:20.098Z,30.00
2022-09-03T11:13:54.191Z,29.90
2022-09-03T11:16:33.876Z,29.80
2022-09-03T11:19:07.019Z,29.60
2022-09-03T11:21:39.185Z,29.10
2022-09-03T11:24:13.758Z,28.70
2022-09-03T11:26:48.432Z,28.70
2022-09-03T11:29:21.930Z,28.90
2022-09-03T11:31:59.846Z,29.30
2022-09-03T11:34:44.573Z,29.30
2022-09-03T11:37:22.242Z,29.20
2022-09-03T11:40:04.967Z,28.90
2022-09-03T11:42:37.865Z,28.70
2022-09-03T11:45:26.363Z,28.60
2022-09-03T11:47:55.388Z,28.30
2022-09-03T11:50:26.269Z,28.10
2022-09-03T11:52:59.616Z,28.00
2022-09-03T11:55:38.270Z,28.00
2022-09-03T11:58:22.163Z,28.00
2022-09-03T12:00:54.341Z,28.10
2022-09-03T12:03:29.045Z,28.00
2022-09-03T12:06:19.995Z,27.90
2022-09-03T12:09:27.091Z,27.70
2022-09-03T12:12:06.086Z,27.50
2022-09-03T12:14:49.238Z,27.20
2022-09-03T12:17:30.792Z,27.10
2022-09-03T12:20:00.564Z,27.40
2022-09-03T12:22:38.729Z,27.70
2022-09-03T12:25:12.002Z,28.00
2022-09-03T12:27:42.088Z,28.30
2022-09-03T12:30:19.278Z,28.30
2022-09-03T12:32:49.614Z,28.10
2022-09-03T12:38:24.120Z,27.50
2022-09-03T12:43:50.042Z,27.00
2022-09-03T12:46:33.168Z,26.70
2022-09-03T12:52:06.234Z,26.30
2022-09-03T12:54:36.168Z,26.10
2022-09-03T12:57:05.592Z,25.90
2022-09-03T12:59:38.015Z,25.90
2022-09-03T13:02:17.552Z,25.70
2022-09-03T13:04:48.448Z,25.60
2022-09-03T13:07:30.333Z,25.50
2022-09-03T13:10:07.911Z,25.40
2022-09-03T13:12:53.377Z,25.30
2022-09-03T13:15:25.712Z,25.30
2022-09-03T13:18:06.290Z,25.30
2022-09-03T13:20:49.491Z,25.30
2022-09-03T13:23:37.343Z,25.20
2022-09-03T13:26:19.783Z,25.30
2022-09-03T13:29:01.852Z,25.40
2022-09-03T13:31:36.420Z,25.50
2022-09-03T13:34:08.226Z,25.60
2022-09-03T13:36:47.627Z,26.00
2022-09-03T13:39:23.188Z,26.20
2022-09-03T13:41:59.605Z,26.30
2022-09-03T13:44:42.151Z,26.30
2022-09-03T13:47:19.466Z,26.20
2022-09-03T13:50:14.929Z,26.00
2022-09-03T13:52:50.317Z,25.80
2022-09-03T13:55:26.106Z,25.60
2022-09-03T13:58:01.913Z,25.50
2022-09-03T14:00:35.910Z,25.40
2022-09-03T14:03:14.714Z,25.30
2022-09-03T14:06:01.564Z,25.20
2022-09-03T14:08:38.854Z,25.10
2022-09-03T14:11:22.956Z,25.10
2022-09-03T14:14:07.498Z,25.00
2022-09-03T14:16:43.760Z,24.90
2022-09-03T14:19:18.230Z,24.80
2022-09-03T14:21:51.946Z,24.70
2022-09-03T14:24:28.071Z,24.60
2022-09-03T14:27:00.872Z,24.50
2022-09-03T14:29:31.207Z,24.40
2022-09-03T14:32:12.532Z,24.00
2022-09-03T14:34:57.068Z,23.70
2022-09-03T14:37:48.388Z,23.50
2022-09-03T14:40:20.929Z,23.40
2022-09-03T14:43:16.215Z,23.30
2022-09-03T14:46:07.060Z,23.30
2022-09-03T14:49:02.477Z,23.20
2022-09-03T14:51:45.508Z,23.10
2022-09-03T14:54:48.227Z,23.10
2022-09-03T14:57:39.899Z,23.10
2022-09-03T15:00:18.531Z,23.20
2022-09-03T15:03:17.640Z,23.30
2022-09-03T15:06:04.351Z,23.40
2022-09-03T15:08:46.701Z,23.60
2022-09-03T15:11:18.959Z,23.80
2022-09-03T15:13:56.479Z,24.00
2022-09-03T15:16:42.880Z,24.10
2022-09-03T15:19:36.843Z,24.30
2022-09-03T15:22:15.816Z,24.40
2022-09-03T15:24:54.649Z,24.50
2022-09-03T15:27:50.633Z,24.70
2022-09-03T15:30:22.618Z,24.90
2022-09-03T15:33:02.803Z,25.10
2022-09-03T15:36:03.093Z,25.20
2022-09-03T15:38:45.294Z,25.30
2022-09-03T15:41:35.751Z,25.30
2022-09-03T15:44:18.953Z,25.30
2022-09-03T15:47:14.051Z,25.30
2022-09-03T15:49:52.706Z,25.30
2022-09-03T15:52:36.575Z,25.20
2022-09-03T15:55:12.791Z,25.20
2022-09-03T15:57:49.886Z,25.10
2022-09-03T16:00:25.520Z,25.10
2022-09-03T16:03:06.854Z,25.00
2022-09-03T16:05:45.685Z,24.90
2022-09-03T16:08:23.356Z,24.90
2022-09-03T16:11:01.758Z,24.90
2022-09-03T16:13:46.915Z,24.80
2022-09-03T16:16:28.175Z,24.80
2022-09-03T16:19:06.842Z,24.80
2022-09-03T16:21:45.978Z,24.80
2022-09-03T16:24:19.444Z,24.80
2022-09-03T16:26:56.783Z,24.80
2022-09-03T16:29:28.330Z,24.80
2022-09-03T16:32:15.042Z,24.80
2022-09-03T16:34:56.462Z,24.80
2022-09-03T16:37:36.394Z,24.70
2022-09-03T16:40:17.250Z,24.70
2022-09-03T16:42:55.485Z,24.70
2022-09-03T16:45:37.111Z,24.70
2022-09-03T16:48:21.368Z,24.60
2022-09-03T16:51:08.352Z,24.50
2022-09-03T16:53:55.703Z,24.50
2022-09-03T16:56:40.067Z,24.40
2022-09-03T16:59:19.686Z,24.30
2022-09-03T17:02:13.866Z,24.30
2022-09-03T17:05:18.553Z,24.30
2022-09-03T17:08:05.166Z,24.10
2022-09-03T17:10:43.129Z,24.00
2022-09-03T17:24:45.164Z,24.00
2022-09-03T17:27:28.438Z,23.80
2022-09-03T17:30:18.231Z,23.80
2022-09-03T17:33:07.989Z,23.80
2022-09-03T17:35:42.988Z,23.80
2022-09-03T17:38:27.847Z,23.70
2022-09-03T17:41:09.277Z,23.70
2022-09-03T17:43:49.009Z,23.70
2022-09-03T17:46:29.917Z,23.60
2022-09-03T17:49:01.469Z,23.60
2022-09-03T17:51:37.036Z,23.50
2022-09-03T17:54:16.582Z,23.40
2022-09-03T17:56:52.696Z,23.40
2022-09-03T17:59:32.156Z,23.30
2022-09-03T18:02:05.645Z,23.20
2022-09-03T18:04:44.951Z,23.20
2022-09-03T18:07:21.299Z,23.20
2022-09-03T18:10:00.159Z,23.10
2022-09-03T18:12:40.450Z,23.10
2022-09-03T18:15:20.585Z,23.00
2022-09-03T18:18:05.099Z,22.90
2022-09-03T18:21:21.938Z,22.90
2022-09-03T18:24:12.977Z,22.80
2022-09-03T18:27:04.539Z,22.70
2022-09-03T18:29:58.282Z,22.70
2022-09-03T18:32:43.768Z,22.60
2022-09-03T18:35:30.352Z,22.60
2022-09-03T18:38:16.072Z,22.50
2022-09-03T18:41:12.067Z,22.50
2022-09-03T18:44:11.065Z,22.40
2022-09-03T18:48:01.932Z,22.40
2022-09-03T18:50:21.429Z,22.30
2022-09-03T18:53:15.555Z,22.30
2022-09-03T18:56:13.904Z,22.30
2022-09-03T18:59:14.007Z,22.20
2022-09-03T19:02:01.878Z,22.10
2022-09-03T19:05:01.435Z,22.10
2022-09-03T19:08:01.510Z,22.00
2022-09-03T19:10:53.182Z,22.00
2022-09-03T19:13:51.227Z,22.00
2022-09-03T19:16:45.311Z,21.90
2022-09-03T19:19:56.405Z,21.90
2022-09-03T19:22:48.651Z,21.90
2022-09-03T19:25:35.271Z,21.90
2022-09-03T19:28:33.925Z,21.90
2022-09-03T19:31:45.096Z,21.80
2022-09-03T19:34:56.381Z,21.80
2022-09-03T19:37:48.620Z,21.70
2022-09-03T19:40:58.606Z,21.70
2022-09-03T19:43:53.999Z,21.70
2022-09-03T19:46:52.315Z,21.70
2022-09-03T19:49:49.350Z,21.60
2022-09-03T19:52:47.294Z,21.60
2022-09-03T19:55:40.032Z,21.60
2022-09-03T19:58:42.041Z,21.50
2022-09-03T20:01:29.665Z,21.40
2022-09-03T20:04:18.949Z,21.40
2022-09-03T20:07:05.308Z,21.40
2022-09-03T20:09:56.530Z,21.40
2022-09-03T20:12:29.078Z,21.30
2022-09-03T20:14:57.361Z,21.40
2022-09-03T20:17:35.914Z,21.30
2022-09-03T20:20:14.698Z,21.30
2022-09-03T20:22:51.375Z,21.20
2022-09-03T20:25:38.503Z,21.20
2022-09-03T20:28:19.440Z,21.20
2022-09-03T20:30:52.227Z,21.20
2022-09-03T20:33:42.209Z,21.20
2022-09-03T20:36:22.435Z,21.10
2022-09-03T20:39:15.710Z,21.10
2022-09-03T20:41:51.404Z,21.10
2022-09-03T20:44:36.639Z,21.00
2022-09-03T20:47:22.195Z,21.00
2022-09-03T20:50:04.307Z,21.00
2022-09-03T20:52:45.870Z,21.00
2022-09-03T20:55:21.186Z,20.90
2022-09-03T20:57:55.098Z,20.80
2022-09-03T21:00:25.151Z,20.80
2022-09-03T21:03:10.284Z,20.80
2022-09-03T21:05:48.841Z,20.80
2022-09-03T21:08:32.529Z,20.80
2022-09-03T21:11:08.266Z,20.90
2022-09-03T21:13:44.211Z,20.80
2022-09-03T21:16:25.115Z,20.80
2022-09-03T21:19:04.674Z,20.80
2022-09-03T21:21:45.711Z,20.80
2022-09-03T21:24:19.330Z,20.80
2022-09-03T21:26:53.059Z,20.70
2022-09-03T21:29:26.711Z,20.70
2022-09-03T21:32:03.631Z,20.70
2022-09-03T21:34:37.155Z,20.70
2022-09-03T21:37:07.108Z,20.60
2022-09-03T21:39:43.366Z,20.60
2022-09-03T21:42:17.802Z,20.60
2022-09-03T21:44:56.763Z,20.60
2022-09-03T21:47:29.234Z,20.60
2022-09-03T21:50:11.973Z,20.60
2022-09-03T21:52:49.971Z,20.60
2022-09-03T21:55:24.089Z,20.60
2022-09-03T21:58:05.695Z,20.60
2022-09-03T22:00:33.890Z,20.50
2022-09-03T22:03:03.576Z,20.60
2022-09-03T22:05:43.725Z,20.60
2022-09-03T22:08:20.141Z,20.60
2022-09-03T22:10:59.667Z,20.50
2022-09-03T22:13:32.372Z,20.50
2022-09-03T22:16:13.452Z,20.50
2022-09-03T22:18:44.219Z,20.40
2022-09-03T22:21:19.486Z,20.40
2022-09-03T22:23:58.665Z,20.40
2022-09-03T22:26:45.739Z,20.30
2022-09-03T22:29:21.970Z,20.40
2022-09-03T22:31:59.631Z,20.30
2022-09-03T22:34:49.443Z,20.40
2022-09-03T22:37:26.753Z,20.30
2022-09-03T22:40:03.535Z,20.30
2022-09-03T22:42:48.744Z,20.20
2022-09-03T22:45:35.547Z,20.10
2022-09-03T22:48:15.773Z,20.10
2022-09-03T22:50:56.623Z,20.10
2022-09-03T22:53:37.984Z,20.10
2022-09-03T22:56:10.090Z,20.10
2022-09-03T22:58:43.400Z,20.10
2022-09-03T23:01:18.632Z,20.20
2022-09-03T23:03:53.993Z,20.10
2022-09-03T23:06:27.715Z,20.10
2022-09-03T23:09:01.445Z,20.00
2022-09-03T23:11:36.638Z,20.10
2022-09-03T23:14:09.765Z,20.10
2022-09-03T23:16:43.479Z,20.10
2022-09-03T23:21:58.705Z,20.10
2022-09-03T23:24:32.306Z,20.20
2022-09-03T23:27:06.346Z,20.20
2022-09-03T23:29:38.713Z,20.20
2022-09-03T23:32:09.397Z,20.20
2022-09-03T23:34:39.345Z,20.10
2022-09-03T23:37:34.445Z,20.10
2022-09-03T23:40:35.035Z,20.10
2022-09-03T23:43:32.744Z,20.10
2022-09-03T23:46:10.172Z,20.00
2022-09-03T23:48:53.806Z,19.90
2022-09-03T23:51:32.803Z,19.80
2022-09-03T23:54:12.061Z,19.80
2022-09-03T23:57:05.547Z,19.70
2022-09-03T23:59:51.892Z,19.60
